sensor_id;sensor_type;location;lat;lon;timestamp;pressure;altitude;pressure_sealevel;temperature
34807;BMP180;18310;55.586;12.286;2022-10-31T00:01:47;101788.00;;;24.30
34807;BMP180;18310;55.586;12.286;2022-10-31T00:04:50;101779.00;;;24.30
34807;BMP180;18310;55.586;12.286;2022-10-31T00:07:53;101784.00;;;24.30
34807;BMP180;18310;55.586;12.286;2022-10-31T00:10:56;101784.00;;;24.40
34807;BMP180;18310;55.586;12.286;2022-10-31T00:14:01;101789.00;;;24.40
34807;BMP180;18310;55.586;12.286;2022-10-31T00:17:04;101786.00;;;24.30
34807;BMP180;18310;55.586;12.286;2022-10-31T00:20:08;101776.00;;;24.40
34807;BMP180;18310;55.586;12.286;2022-10-31T00:23:11;101788.00;;;24.30
34807;BMP180;18310;55.586;12.286;2022-10-31T00:26:15;101780.00;;;24.30
34807;BMP180;18310;55.586;12.286;2022-10-31T00:29:19;101770.00;;;24.30
34807;BMP180;18310;55.586;12.286;2022-10-31T00:32:22;101778.00;;;24.30
34807;BMP180;18310;55.586;12.286;2022-10-31T00:35:25;101782.00;;;24.30
34807;BMP180;18310;55.586;12.286;2022-10-31T00:38:29;101779.00;;;24.30
34807;BMP180;18310;55.586;12.286;2022-10-31T00:41:32;101781.00;;;24.30
34807;BMP180;18310;55.586;12.286;2022-10-31T00:44:36;101793.00;;;24.40
34807;BMP180;18310;55.586;12.286;2022-10-31T00:47:39;101789.00;;;24.30
34807;BMP180;18310;55.586;12.286;2022-10-31T00:50:42;101794.00;;;24.30
34807;BMP180;18310;55.586;12.286;2022-10-31T00:53:45;101792.00;;;24.30
34807;BMP180;18310;55.586;12.286;2022-10-31T00:56:48;101804.00;;;24.30
34807;BMP180;18310;55.586;12.286;2022-10-31T00:59:53;101802.00;;;24.40
34807;BMP180;18310;55.586;12.286;2022-10-31T01:02:56;101807.00;;;24.30
34807;BMP180;18310;55.586;12.286;2022-10-31T01:06:03;101810.00;;;24.30
34807;BMP180;18310;55.586;12.286;2022-10-31T01:09:06;101816.00;;;24.30
34807;BMP180;18310;55.586;12.286;2022-10-31T01:12:09;101812.00;;;24.30
34807;BMP180;18310;55.586;12.286;2022-10-31T01:15:17;101807.00;;;24.30
34807;BMP180;18310;55.586;12.286;2022-10-31T01:18:20;101807.00;;;24.40
34807;BMP180;18310;55.586;12.286;2022-10-31T01:21:26;101814.00;;;24.40
34807;BMP180;18310;55.586;12.286;2022-10-31T01:24:30;101816.00;;;24.40
34807;BMP180;18310;55.586;12.286;2022-10-31T01:27:33;101810.00;;;24.40
34807;BMP180;18310;55.586;12.286;2022-10-31T01:30:38;101816.00;;;24.40
34807;BMP180;18310;55.586;12.286;2022-10-31T01:33:41;101815.00;;;24.40
34807;BMP180;18310;55.586;12.286;2022-10-31T01:36:45;101820.00;;;24.40
34807;BMP180;18310;55.586;12.286;2022-10-31T01:39:52;101815.00;;;24.40
34807;BMP180;18310;55.586;12.286;2022-10-31T01:42:55;101815.00;;;24.40
34807;BMP180;18310;55.586;12.286;2022-10-31T01:46:01;101820.00;;;24.40
34807;BMP180;18310;55.586;12.286;2022-10-31T01:49:09;101828.00;;;24.50
34807;BMP180;18310;55.586;12.286;2022-10-31T01:52:20;101827.00;;;24.50
34807;BMP180;18310;55.586;12.286;2022-10-31T01:55:28;101823.00;;;24.50
34807;BMP180;18310;55.586;12.286;2022-10-31T01:58:32;101821.00;;;24.50
34807;BMP180;18310;55.586;12.286;2022-10-31T02:01:38;101820.00;;;24.50
34807;BMP180;18310;55.586;12.286;2022-10-31T02:04:42;101823.00;;;24.50
34807;BMP180;18310;55.586;12.286;2022-10-31T02:07:54;101813.00;;;24.50
34807;BMP180;18310;55.586;12.286;2022-10-31T02:11:00;101809.00;;;24.50
34807;BMP180;18310;55.586;12.286;2022-10-31T02:14:04;101810.00;;;24.40
34807;BMP180;18310;55.586;12.286;2022-10-31T02:17:09;101816.00;;;24.40
34807;BMP180;18310;55.586;12.286;2022-10-31T02:20:17;101821.00;;;24.40
34807;BMP180;18310;55.586;12.286;2022-10-31T02:23:56;101814.00;;;24.40
34807;BMP180;18310;55.586;12.286;2022-10-31T02:27:19;101822.00;;;24.30
34807;BMP180;18310;55.586;12.286;2022-10-31T02:30:28;101816.00;;;24.30
34807;BMP180;18310;55.586;12.286;2022-10-31T02:33:43;101809.00;;;24.20
34807;BMP180;18310;55.586;12.286;2022-10-31T02:36:56;101808.00;;;24.20
34807;BMP180;18310;55.586;12.286;2022-10-31T02:40:10;101803.00;;;24.10
34807;BMP180;18310;55.586;12.286;2022-10-31T02:43:26;101807.00;;;24.10
34807;BMP180;18310;55.586;12.286;2022-10-31T02:46:36;101812.00;;;24.10
34807;BMP180;18310;55.586;12.286;2022-10-31T02:49:50;101802.00;;;24.10
34807;BMP180;18310;55.586;12.286;2022-10-31T02:52:55;101799.00;;;24.00
34807;BMP180;18310;55.586;12.286;2022-10-31T02:56:01;101804.00;;;24.00
34807;BMP180;18310;55.586;12.286;2022-10-31T02:59:06;101813.00;;;24.00
34807;BMP180;18310;55.586;12.286;2022-10-31T03:02:30;101812.00;;;23.90
34807;BMP180;18310;55.586;12.286;2022-10-31T03:05:51;101812.00;;;23.90
34807;BMP180;18310;55.586;12.286;2022-10-31T03:09:08;101819.00;;;23.80
34807;BMP180;18310;55.586;12.286;2022-10-31T03:12:21;101822.00;;;23.80
34807;BMP180;18310;55.586;12.286;2022-10-31T03:15:32;101823.00;;;23.70
34807;BMP180;18310;55.586;12.286;2022-10-31T03:18:40;101823.00;;;23.70
34807;BMP180;18310;55.586;12.286;2022-10-31T03:21:53;101822.00;;;23.70
34807;BMP180;18310;55.586;12.286;2022-10-31T03:25:00;101829.00;;;23.60
34807;BMP180;18310;55.586;12.286;2022-10-31T03:28:07;101835.00;;;23.60
34807;BMP180;18310;55.586;12.286;2022-10-31T03:31:16;101829.00;;;23.60
34807;BMP180;18310;55.586;12.286;2022-10-31T03:34:21;101831.00;;;23.60
34807;BMP180;18310;55.586;12.286;2022-10-31T03:37:29;101828.00;;;23.60
34807;BMP180;18310;55.586;12.286;2022-10-31T03:40:36;101825.00;;;23.70
34807;BMP180;18310;55.586;12.286;2022-10-31T03:43:48;101833.00;;;23.70
34807;BMP180;18310;55.586;12.286;2022-10-31T03:46:53;101845.00;;;23.70
34807;BMP180;18310;55.586;12.286;2022-10-31T03:49:56;101853.00;;;23.70
34807;BMP180;18310;55.586;12.286;2022-10-31T03:53:08;101857.00;;;23.70
34807;BMP180;18310;55.586;12.286;2022-10-31T03:56:20;101856.00;;;23.70
34807;BMP180;18310;55.586;12.286;2022-10-31T03:59:30;101862.00;;;23.70
34807;BMP180;18310;55.586;12.286;2022-10-31T04:02:40;101869.00;;;23.80
34807;BMP180;18310;55.586;12.286;2022-10-31T04:05:48;101870.00;;;23.80
34807;BMP180;18310;55.586;12.286;2022-10-31T04:09:00;101869.00;;;23.80
34807;BMP180;18310;55.586;12.286;2022-10-31T04:12:07;101872.00;;;23.80
34807;BMP180;18310;55.586;12.286;2022-10-31T04:15:12;101879.00;;;23.80
34807;BMP180;18310;55.586;12.286;2022-10-31T04:18:15;101879.00;;;23.80
34807;BMP180;18310;55.586;12.286;2022-10-31T04:21:18;101873.00;;;23.90
34807;BMP180;18310;55.586;12.286;2022-10-31T04:24:23;101871.00;;;23.90
34807;BMP180;18310;55.586;12.286;2022-10-31T04:27:26;101873.00;;;23.90
34807;BMP180;18310;55.586;12.286;2022-10-31T04:30:29;101856.00;;;23.90
34807;BMP180;18310;55.586;12.286;2022-10-31T04:33:32;101870.00;;;23.90
34807;BMP180;18310;55.586;12.286;2022-10-31T04:36:35;101876.00;;;23.90
34807;BMP180;18310;55.586;12.286;2022-10-31T04:39:39;101874.00;;;23.90
34807;BMP180;18310;55.586;12.286;2022-10-31T04:42:42;101876.00;;;23.90
34807;BMP180;18310;55.586;12.286;2022-10-31T04:45:45;101879.00;;;23.90
34807;BMP180;18310;55.586;12.286;2022-10-31T04:48:48;101883.00;;;23.90
34807;BMP180;18310;55.586;12.286;2022-10-31T04:51:51;101882.00;;;23.90
34807;BMP180;18310;55.586;12.286;2022-10-31T04:54:56;101888.00;;;23.90
34807;BMP180;18310;55.586;12.286;2022-10-31T04:57:59;101897.00;;;24.00
34807;BMP180;18310;55.586;12.286;2022-10-31T05:01:03;101890.00;;;23.90
34807;BMP180;18310;55.586;12.286;2022-10-31T05:04:06;101895.00;;;23.90
34807;BMP180;18310;55.586;12.286;2022-10-31T05:07:09;101903.00;;;24.00
34807;BMP180;18310;55.586;12.286;2022-10-31T05:10:15;101899.00;;;24.00
34807;BMP180;18310;55.586;12.286;2022-10-31T05:13:20;101895.00;;;24.00
34807;BMP180;18310;55.586;12.286;2022-10-31T05:16:28;101898.00;;;24.00
34807;BMP180;18310;55.586;12.286;2022-10-31T05:19:31;101895.00;;;24.10
34807;BMP180;18310;55.586;12.286;2022-10-31T05:22:34;101901.00;;;24.10
34807;BMP180;18310;55.586;12.286;2022-10-31T05:25:40;101901.00;;;24.10
34807;BMP180;18310;55.586;12.286;2022-10-31T05:28:43;101911.00;;;24.10
34807;BMP180;18310;55.586;12.286;2022-10-31T05:31:46;101914.00;;;24.10
34807;BMP180;18310;55.586;12.286;2022-10-31T05:34:49;101918.00;;;24.10
34807;BMP180;18310;55.586;12.286;2022-10-31T05:37:52;101921.00;;;24.10
34807;BMP180;18310;55.586;12.286;2022-10-31T05:40:57;101913.00;;;24.20
34807;BMP180;18310;55.586;12.286;2022-10-31T05:44:01;101915.00;;;24.20
34807;BMP180;18310;55.586;12.286;2022-10-31T05:47:05;101913.00;;;24.20
34807;BMP180;18310;55.586;12.286;2022-10-31T05:50:09;101909.00;;;24.20
34807;BMP180;18310;55.586;12.286;2022-10-31T05:53:13;101901.00;;;24.20
34807;BMP180;18310;55.586;12.286;2022-10-31T05:56:17;101904.00;;;24.20
34807;BMP180;18310;55.586;12.286;2022-10-31T05:59:20;101904.00;;;24.20
34807;BMP180;18310;55.586;12.286;2022-10-31T06:02:23;101904.00;;;24.20
34807;BMP180;18310;55.586;12.286;2022-10-31T06:05:27;101913.00;;;24.20
34807;BMP180;18310;55.586;12.286;2022-10-31T06:08:30;101912.00;;;24.20
34807;BMP180;18310;55.586;12.286;2022-10-31T06:11:34;101924.00;;;24.20
34807;BMP180;18310;55.586;12.286;2022-10-31T06:14:37;101919.00;;;24.20
34807;BMP180;18310;55.586;12.286;2022-10-31T06:17:40;101916.00;;;24.20
34807;BMP180;18310;55.586;12.286;2022-10-31T06:20:43;101923.00;;;24.20
34807;BMP180;18310;55.586;12.286;2022-10-31T06:23:47;101939.00;;;24.20
34807;BMP180;18310;55.586;12.286;2022-10-31T06:26:52;101937.00;;;24.10
34807;BMP180;18310;55.586;12.286;2022-10-31T06:29:55;101934.00;;;24.10
34807;BMP180;18310;55.586;12.286;2022-10-31T06:33:03;101930.00;;;24.10
34807;BMP180;18310;55.586;12.286;2022-10-31T06:36:08;101931.00;;;24.10
34807;BMP180;18310;55.586;12.286;2022-10-31T06:39:11;101930.00;;;24.10
34807;BMP180;18310;55.586;12.286;2022-10-31T06:42:17;101941.00;;;24.10
34807;BMP180;18310;55.586;12.286;2022-10-31T06:45:20;101942.00;;;24.10
34807;BMP180;18310;55.586;12.286;2022-10-31T06:48:23;101950.00;;;24.10
34807;BMP180;18310;55.586;12.286;2022-10-31T06:51:26;101947.00;;;24.10
34807;BMP180;18310;55.586;12.286;2022-10-31T06:54:29;101951.00;;;24.00
34807;BMP180;18310;55.586;12.286;2022-10-31T06:57:34;101958.00;;;24.10
34807;BMP180;18310;55.586;12.286;2022-10-31T07:00:37;101950.00;;;24.00
34807;BMP180;18310;55.586;12.286;2022-10-31T07:03:40;101953.00;;;24.00
34807;BMP180;18310;55.586;12.286;2022-10-31T07:06:43;101954.00;;;24.00
34807;BMP180;18310;55.586;12.286;2022-10-31T07:09:52;101945.00;;;24.00
34807;BMP180;18310;55.586;12.286;2022-10-31T07:12:58;101952.00;;;24.00
34807;BMP180;18310;55.586;12.286;2022-10-31T07:16:03;101952.00;;;24.00
34807;BMP180;18310;55.586;12.286;2022-10-31T07:19:08;101964.00;;;24.00
34807;BMP180;18310;55.586;12.286;2022-10-31T07:22:11;101963.00;;;24.00
34807;BMP180;18310;55.586;12.286;2022-10-31T07:25:14;101969.00;;;24.00
34807;BMP180;18310;55.586;12.286;2022-10-31T07:28:19;101968.00;;;24.00
34807;BMP180;18310;55.586;12.286;2022-10-31T07:31:22;101971.00;;;24.00
34807;BMP180;18310;55.586;12.286;2022-10-31T07:34:26;101979.00;;;24.00
34807;BMP180;18310;55.586;12.286;2022-10-31T07:37:29;101981.00;;;24.10
34807;BMP180;18310;55.586;12.286;2022-10-31T07:40:32;101976.00;;;24.10
34807;BMP180;18310;55.586;12.286;2022-10-31T07:43:36;101974.00;;;24.10
34807;BMP180;18310;55.586;12.286;2022-10-31T07:46:39;101982.00;;;24.00
34807;BMP180;18310;55.586;12.286;2022-10-31T07:49:42;101986.00;;;24.00
34807;BMP180;18310;55.586;12.286;2022-10-31T07:52:46;101995.00;;;24.10
34807;BMP180;18310;55.586;12.286;2022-10-31T07:55:49;101989.00;;;24.00
34807;BMP180;18310;55.586;12.286;2022-10-31T07:58:53;101995.00;;;24.00
34807;BMP180;18310;55.586;12.286;2022-10-31T08:01:56;101986.00;;;24.00
34807;BMP180;18310;55.586;12.286;2022-10-31T08:04:59;102001.00;;;24.00
34807;BMP180;18310;55.586;12.286;2022-10-31T08:08:04;101993.00;;;24.00
34807;BMP180;18310;55.586;12.286;2022-10-31T08:11:07;102000.00;;;24.00
34807;BMP180;18310;55.586;12.286;2022-10-31T08:14:12;101997.00;;;24.00
34807;BMP180;18310;55.586;12.286;2022-10-31T08:17:15;102003.00;;;24.00
34807;BMP180;18310;55.586;12.286;2022-10-31T08:20:19;102004.00;;;24.10
34807;BMP180;18310;55.586;12.286;2022-10-31T08:23:22;102003.00;;;24.10
34807;BMP180;18310;55.586;12.286;2022-10-31T08:26:25;102007.00;;;24.10
34807;BMP180;18310;55.586;12.286;2022-10-31T08:29:29;102013.00;;;24.00
34807;BMP180;18310;55.586;12.286;2022-10-31T08:32:32;102014.00;;;24.00
34807;BMP180;18310;55.586;12.286;2022-10-31T08:35:36;102012.00;;;24.00
34807;BMP180;18310;55.586;12.286;2022-10-31T08:38:39;102011.00;;;23.90
34807;BMP180;18310;55.586;12.286;2022-10-31T08:41:42;102023.00;;;23.90
34807;BMP180;18310;55.586;12.286;2022-10-31T08:44:46;102022.00;;;23.90
34807;BMP180;18310;55.586;12.286;2022-10-31T08:47:50;102017.00;;;23.90
34807;BMP180;18310;55.586;12.286;2022-10-31T08:50:57;102031.00;;;23.90
34807;BMP180;18310;55.586;12.286;2022-10-31T08:54:00;102023.00;;;23.90
34807;BMP180;18310;55.586;12.286;2022-10-31T08:57:03;102026.00;;;23.90
34807;BMP180;18310;55.586;12.286;2022-10-31T09:00:09;102030.00;;;23.90
34807;BMP180;18310;55.586;12.286;2022-10-31T09:03:15;102025.00;;;23.90
34807;BMP180;18310;55.586;12.286;2022-10-31T09:06:18;102044.00;;;24.00
34807;BMP180;18310;55.586;12.286;2022-10-31T09:09:21;102042.00;;;24.00
34807;BMP180;18310;55.586;12.286;2022-10-31T09:12:24;102043.00;;;24.10
34807;BMP180;18310;55.586;12.286;2022-10-31T09:15:30;102053.00;;;24.10
34807;BMP180;18310;55.586;12.286;2022-10-31T09:18:33;102048.00;;;24.10
34807;BMP180;18310;55.586;12.286;2022-10-31T09:21:36;102046.00;;;24.10
34807;BMP180;18310;55.586;12.286;2022-10-31T09:24:39;102045.00;;;24.20
34807;BMP180;18310;55.586;12.286;2022-10-31T09:27:42;102042.00;;;24.20
34807;BMP180;18310;55.586;12.286;2022-10-31T09:30:49;102053.00;;;24.30
34807;BMP180;18310;55.586;12.286;2022-10-31T09:33:53;102054.00;;;24.30
34807;BMP180;18310;55.586;12.286;2022-10-31T09:36:56;102055.00;;;24.40
34807;BMP180;18310;55.586;12.286;2022-10-31T09:39:59;102058.00;;;24.40
34807;BMP180;18310;55.586;12.286;2022-10-31T09:43:15;102056.00;;;24.50
34807;BMP180;18310;55.586;12.286;2022-10-31T09:46:29;102067.00;;;24.60
34807;BMP180;18310;55.586;12.286;2022-10-31T09:49:53;102068.00;;;24.70
34807;BMP180;18310;55.586;12.286;2022-10-31T09:53:05;102073.00;;;24.70
34807;BMP180;18310;55.586;12.286;2022-10-31T09:56:14;102076.00;;;24.70
34807;BMP180;18310;55.586;12.286;2022-10-31T09:59:32;102088.00;;;24.80
34807;BMP180;18310;55.586;12.286;2022-10-31T10:02:44;102070.00;;;24.90
34807;BMP180;18310;55.586;12.286;2022-10-31T10:05:56;102070.00;;;25.00
34807;BMP180;18310;55.586;12.286;2022-10-31T10:09:03;102069.00;;;25.10
34807;BMP180;18310;55.586;12.286;2022-10-31T10:12:16;102073.00;;;25.20
34807;BMP180;18310;55.586;12.286;2022-10-31T10:15:44;102072.00;;;25.30
34807;BMP180;18310;55.586;12.286;2022-10-31T10:19:16;102076.00;;;25.50
34807;BMP180;18310;55.586;12.286;2022-10-31T10:22:30;102074.00;;;25.60
34807;BMP180;18310;55.586;12.286;2022-10-31T10:25:39;102074.00;;;25.70
34807;BMP180;18310;55.586;12.286;2022-10-31T10:28:47;102067.00;;;25.70
34807;BMP180;18310;55.586;12.286;2022-10-31T10:31:53;102068.00;;;25.70
34807;BMP180;18310;55.586;12.286;2022-10-31T10:35:10;102065.00;;;25.70
34807;BMP180;18310;55.586;12.286;2022-10-31T10:38:25;102070.00;;;25.80
34807;BMP180;18310;55.586;12.286;2022-10-31T10:41:32;102068.00;;;25.90
34807;BMP180;18310;55.586;12.286;2022-10-31T10:44:39;102078.00;;;26.00
34807;BMP180;18310;55.586;12.286;2022-10-31T10:48:10;102074.00;;;26.00
34807;BMP180;18310;55.586;12.286;2022-10-31T10:51:22;102076.00;;;26.00
34807;BMP180;18310;55.586;12.286;2022-10-31T10:54:59;102074.00;;;26.00
34807;BMP180;18310;55.586;12.286;2022-10-31T10:58:08;102078.00;;;26.00
34807;BMP180;18310;55.586;12.286;2022-10-31T11:01:13;102077.00;;;26.00
34807;BMP180;18310;55.586;12.286;2022-10-31T11:04:30;102076.00;;;26.10
34807;BMP180;18310;55.586;12.286;2022-10-31T11:07:40;102083.00;;;26.20
34807;BMP180;18310;55.586;12.286;2022-10-31T11:10:44;102081.00;;;26.20
34807;BMP180;18310;55.586;12.286;2022-10-31T11:13:50;102080.00;;;26.20
34807;BMP180;18310;55.586;12.286;2022-10-31T11:17:10;102077.00;;;26.30
34807;BMP180;18310;55.586;12.286;2022-10-31T11:20:27;102069.00;;;26.30
34807;BMP180;18310;55.586;12.286;2022-10-31T11:23:34;102077.00;;;26.40
34807;BMP180;18310;55.586;12.286;2022-10-31T11:26:38;102073.00;;;26.40
34807;BMP180;18310;55.586;12.286;2022-10-31T11:29:42;102072.00;;;26.40
34807;BMP180;18310;55.586;12.286;2022-10-31T11:32:49;102079.00;;;26.50
34807;BMP180;18310;55.586;12.286;2022-10-31T11:35:55;102070.00;;;26.50
34807;BMP180;18310;55.586;12.286;2022-10-31T11:39:04;102080.00;;;26.40
34807;BMP180;18310;55.586;12.286;2022-10-31T11:42:08;102074.00;;;26.40
34807;BMP180;18310;55.586;12.286;2022-10-31T11:45:16;102075.00;;;26.40
34807;BMP180;18310;55.586;12.286;2022-10-31T11:48:22;102076.00;;;26.40
34807;BMP180;18310;55.586;12.286;2022-10-31T11:51:30;102077.00;;;26.40
34807;BMP180;18310;55.586;12.286;2022-10-31T11:54:48;102067.00;;;26.40
34807;BMP180;18310;55.586;12.286;2022-10-31T11:57:53;102073.00;;;26.40
34807;BMP180;18310;55.586;12.286;2022-10-31T12:00:58;102070.00;;;26.40
34807;BMP180;18310;55.586;12.286;2022-10-31T12:04:07;102073.00;;;26.30
34807;BMP180;18310;55.586;12.286;2022-10-31T12:07:11;102069.00;;;26.30
34807;BMP180;18310;55.586;12.286;2022-10-31T12:10:16;102069.00;;;26.30
34807;BMP180;18310;55.586;12.286;2022-10-31T12:13:34;102065.00;;;26.40
34807;BMP180;18310;55.586;12.286;2022-10-31T12:16:46;102062.00;;;26.40
34807;BMP180;18310;55.586;12.286;2022-10-31T12:20:05;102063.00;;;26.40
34807;BMP180;18310;55.586;12.286;2022-10-31T12:23:19;102060.00;;;26.60
34807;BMP180;18310;55.586;12.286;2022-10-31T12:26:36;102063.00;;;26.60
34807;BMP180;18310;55.586;12.286;2022-10-31T12:30:18;102056.00;;;26.60
34807;BMP180;18310;55.586;12.286;2022-10-31T12:33:45;102056.00;;;26.60
34807;BMP180;18310;55.586;12.286;2022-10-31T12:37:00;102054.00;;;26.70
34807;BMP180;18310;55.586;12.286;2022-10-31T12:40:28;102050.00;;;26.60
34807;BMP180;18310;55.586;12.286;2022-10-31T12:43:46;102050.00;;;26.60
34807;BMP180;18310;55.586;12.286;2022-10-31T12:47:12;102049.00;;;26.60
34807;BMP180;18310;55.586;12.286;2022-10-31T12:50:34;102056.00;;;26.60
34807;BMP180;18310;55.586;12.286;2022-10-31T12:54:02;102058.00;;;26.70
34807;BMP180;18310;55.586;12.286;2022-10-31T12:57:22;102061.00;;;26.70
34807;BMP180;18310;55.586;12.286;2022-10-31T13:00:28;102063.00;;;26.60
34807;BMP180;18310;55.586;12.286;2022-10-31T13:03:40;102058.00;;;26.60
34807;BMP180;18310;55.586;12.286;2022-10-31T13:06:54;102055.00;;;26.60
34807;BMP180;18310;55.586;12.286;2022-10-31T13:10:02;102056.00;;;26.60
34807;BMP180;18310;55.586;12.286;2022-10-31T13:13:13;102055.00;;;26.60
34807;BMP180;18310;55.586;12.286;2022-10-31T13:16:23;102060.00;;;26.60
34807;BMP180;18310;55.586;12.286;2022-10-31T13:19:34;102049.00;;;26.50
34807;BMP180;18310;55.586;12.286;2022-10-31T13:22:41;102056.00;;;26.50
34807;BMP180;18310;55.586;12.286;2022-10-31T13:25:50;102060.00;;;26.50
34807;BMP180;18310;55.586;12.286;2022-10-31T13:29:02;102049.00;;;26.40
34807;BMP180;18310;55.586;12.286;2022-10-31T13:32:10;102063.00;;;26.40
34807;BMP180;18310;55.586;12.286;2022-10-31T13:35:22;102061.00;;;26.40
34807;BMP180;18310;55.586;12.286;2022-10-31T13:38:33;102052.00;;;26.30
34807;BMP180;18310;55.586;12.286;2022-10-31T13:41:46;102048.00;;;26.30
34807;BMP180;18310;55.586;12.286;2022-10-31T13:44:50;102048.00;;;26.30
34807;BMP180;18310;55.586;12.286;2022-10-31T13:48:01;102042.00;;;26.30
34807;BMP180;18310;55.586;12.286;2022-10-31T13:51:26;102057.00;;;26.40
34807;BMP180;18310;55.586;12.286;2022-10-31T13:54:34;102045.00;;;26.40
34807;BMP180;18310;55.586;12.286;2022-10-31T13:57:42;102043.00;;;26.40
34807;BMP180;18310;55.586;12.286;2022-10-31T14:00:46;102039.00;;;26.40
34807;BMP180;18310;55.586;12.286;2022-10-31T14:04:06;102047.00;;;26.40
34807;BMP180;18310;55.586;12.286;2022-10-31T14:07:21;102050.00;;;26.30
34807;BMP180;18310;55.586;12.286;2022-10-31T14:10:29;102049.00;;;26.20
34807;BMP180;18310;55.586;12.286;2022-10-31T14:13:36;102049.00;;;26.10
34807;BMP180;18310;55.586;12.286;2022-10-31T14:16:44;102052.00;;;26.00
34807;BMP180;18310;55.586;12.286;2022-10-31T14:20:22;102047.00;;;25.90
34807;BMP180;18310;55.586;12.286;2022-10-31T14:23:38;102051.00;;;25.80
34807;BMP180;18310;55.586;12.286;2022-10-31T14:26:54;102049.00;;;25.70
34807;BMP180;18310;55.586;12.286;2022-10-31T14:30:14;102044.00;;;25.60
34807;BMP180;18310;55.586;12.286;2022-10-31T14:33:20;102048.00;;;25.40
34807;BMP180;18310;55.586;12.286;2022-10-31T14:36:39;102051.00;;;25.30
34807;BMP180;18310;55.586;12.286;2022-10-31T14:40:02;102049.00;;;25.20
34807;BMP180;18310;55.586;12.286;2022-10-31T14:46:52;102035.00;;;25.00
34807;BMP180;18310;55.586;12.286;2022-10-31T14:50:14;102032.00;;;24.80
34807;BMP180;18310;55.586;12.286;2022-10-31T14:53:26;102033.00;;;24.70
34807;BMP180;18310;55.586;12.286;2022-10-31T14:56:34;102029.00;;;24.60
34807;BMP180;18310;55.586;12.286;2022-10-31T14:59:42;102035.00;;;24.50
34807;BMP180;18310;55.586;12.286;2022-10-31T15:03:00;102031.00;;;24.40
34807;BMP180;18310;55.586;12.286;2022-10-31T15:06:12;102036.00;;;24.30
34807;BMP180;18310;55.586;12.286;2022-10-31T15:09:24;102038.00;;;24.20
34807;BMP180;18310;55.586;12.286;2022-10-31T15:12:30;102036.00;;;24.10
34807;BMP180;18310;55.586;12.286;2022-10-31T15:15:34;102034.00;;;24.00
34807;BMP180;18310;55.586;12.286;2022-10-31T15:18:46;102026.00;;;23.90
34807;BMP180;18310;55.586;12.286;2022-10-31T15:21:52;102018.00;;;23.80
34807;BMP180;18310;55.586;12.286;2022-10-31T15:24:57;102025.00;;;23.70
34807;BMP180;18310;55.586;12.286;2022-10-31T15:28:00;102023.00;;;23.60
34807;BMP180;18310;55.586;12.286;2022-10-31T15:31:04;102020.00;;;23.50
34807;BMP180;18310;55.586;12.286;2022-10-31T15:34:21;102021.00;;;23.40
34807;BMP180;18310;55.586;12.286;2022-10-31T15:37:26;102015.00;;;23.30
34807;BMP180;18310;55.586;12.286;2022-10-31T15:40:31;102016.00;;;23.20
34807;BMP180;18310;55.586;12.286;2022-10-31T15:43:37;102005.00;;;23.10
34807;BMP180;18310;55.586;12.286;2022-10-31T15:46:41;102004.00;;;23.00
34807;BMP180;18310;55.586;12.286;2022-10-31T15:49:50;101989.00;;;23.00
34807;BMP180;18310;55.586;12.286;2022-10-31T15:52:54;101993.00;;;22.90
34807;BMP180;18310;55.586;12.286;2022-10-31T15:56:02;101992.00;;;22.80
34807;BMP180;18310;55.586;12.286;2022-10-31T15:59:25;101990.00;;;22.80
34807;BMP180;18310;55.586;12.286;2022-10-31T16:02:29;101992.00;;;22.70
34807;BMP180;18310;55.586;12.286;2022-10-31T16:05:38;101990.00;;;22.70
34807;BMP180;18310;55.586;12.286;2022-10-31T16:08:48;101993.00;;;22.60
34807;BMP180;18310;55.586;12.286;2022-10-31T16:11:55;101992.00;;;22.50
34807;BMP180;18310;55.586;12.286;2022-10-31T16:14:59;101996.00;;;22.40
34807;BMP180;18310;55.586;12.286;2022-10-31T16:18:02;101990.00;;;22.40
34807;BMP180;18310;55.586;12.286;2022-10-31T16:21:08;101992.00;;;22.30
34807;BMP180;18310;55.586;12.286;2022-10-31T16:24:22;101992.00;;;22.20
34807;BMP180;18310;55.586;12.286;2022-10-31T16:27:33;101995.00;;;22.10
34807;BMP180;18310;55.586;12.286;2022-10-31T16:30:39;102003.00;;;22.00
34807;BMP180;18310;55.586;12.286;2022-10-31T16:33:49;102002.00;;;22.00
34807;BMP180;18310;55.586;12.286;2022-10-31T16:36:55;101988.00;;;21.90
34807;BMP180;18310;55.586;12.286;2022-10-31T16:39:58;101993.00;;;21.90
34807;BMP180;18310;55.586;12.286;2022-10-31T16:43:02;101998.00;;;21.80
34807;BMP180;18310;55.586;12.286;2022-10-31T16:46:07;102002.00;;;21.80
34807;BMP180;18310;55.586;12.286;2022-10-31T16:49:15;102008.00;;;21.70
34807;BMP180;18310;55.586;12.286;2022-10-31T16:52:18;102004.00;;;21.70
34807;BMP180;18310;55.586;12.286;2022-10-31T16:55:21;102005.00;;;21.60
34807;BMP180;18310;55.586;12.286;2022-10-31T16:58:30;101994.00;;;21.50
34807;BMP180;18310;55.586;12.286;2022-10-31T17:01:34;102003.00;;;21.40
34807;BMP180;18310;55.586;12.286;2022-10-31T17:04:38;101993.00;;;21.40
34807;BMP180;18310;55.586;12.286;2022-10-31T17:07:41;101994.00;;;21.30
34807;BMP180;18310;55.586;12.286;2022-10-31T17:10:46;101998.00;;;21.20
34807;BMP180;18310;55.586;12.286;2022-10-31T17:13:52;102002.00;;;21.20
34807;BMP180;18310;55.586;12.286;2022-10-31T17:16:56;102001.00;;;21.10
34807;BMP180;18310;55.586;12.286;2022-10-31T17:19:59;101995.00;;;21.00
34807;BMP180;18310;55.586;12.286;2022-10-31T17:23:02;101991.00;;;20.90
34807;BMP180;18310;55.586;12.286;2022-10-31T17:26:06;101996.00;;;20.80
34807;BMP180;18310;55.586;12.286;2022-10-31T17:29:12;101994.00;;;20.70
34807;BMP180;18310;55.586;12.286;2022-10-31T17:32:15;101993.00;;;20.60
34807;BMP180;18310;55.586;12.286;2022-10-31T17:35:21;101994.00;;;20.60